sensor_id;sensor_type;location;lat;lon;timestamp;pressure;altitude;pressure_sealevel;temperature;humidity
54329;BME280;40710;51.120;13.136;2023-04-23T00:00:22;98595.34;;;19.01;37.99
54329;BME280;40710;51.120;13.136;2023-04-23T00:02:51;98592.47;;;18.94;38.34
54329;BME280;40710;51.120;13.136;2023-04-23T00:05:16;98596.47;;;18.80;38.48
54329;BME280;40710;51.120;13.136;2023-04-23T00:07:41;98596.75;;;18.77;38.55
54329;BME280;40710;51.120;13.136;2023-04-23T00:10:06;98594.03;;;19.05;38.30
54329;BME280;40710;51.120;13.136;2023-04-23T00:12:32;98591.66;;;19.20;38.30
54329;BME280;40710;51.120;13.136;2023-04-23T00:14:57;98586.19;;;19.03;38.52
54329;BME280;40710;51.120;13.136;2023-04-23T00:17:22;98597.78;;;18.76;39.05
54329;BME280;40710;51.120;13.136;2023-04-23T00:19:46;98576.56;;;18.84;38.68
54329;BME280;40710;51.120;13.136;2023-04-23T00:22:11;98581.81;;;18.94;38.82
54329;BME280;40710;51.120;13.136;2023-04-23T00:24:37;98586.41;;;19.10;38.35
54329;BME280;40710;51.120;13.136;2023-04-23T00:27:02;98583.16;;;18.98;38.73
54329;BME280;40710;51.120;13.136;2023-04-23T00:29:26;98583.50;;;18.95;38.89
54329;BME280;40710;51.120;13.136;2023-04-23T00:31:51;98571.13;;;19.38;37.94
54329;BME280;40710;51.120;13.136;2023-04-23T00:34:15;98577.41;;;18.85;39.19
54329;BME280;40710;51.120;13.136;2023-04-23T00:36:40;98573.56;;;19.05;39.11
54329;BME280;40710;51.120;13.136;2023-04-23T00:39:04;98576.63;;;18.75;39.54
54329;BME280;40710;51.120;13.136;2023-04-23T00:41:29;98581.94;;;18.75;39.45
54329;BME280;40710;51.120;13.136;2023-04-23T00:43:55;98573.44;;;18.89;39.26
54329;BME280;40710;51.120;13.136;2023-04-23T00:46:21;98577.44;;;19.11;39.16
54329;BME280;40710;51.120;13.136;2023-04-23T00:48:46;98580.41;;;18.54;40.10
54329;BME280;40710;51.120;13.136;2023-04-23T00:51:10;98576.69;;;19.01;39.26
54329;BME280;40710;51.120;13.136;2023-04-23T00:53:35;98578.78;;;18.89;39.33
54329;BME280;40710;51.120;13.136;2023-04-23T00:56:02;98581.78;;;18.58;39.90
54329;BME280;40710;51.120;13.136;2023-04-23T00:58:28;98572.81;;;18.59;39.87
54329;BME280;40710;51.120;13.136;2023-04-23T01:00:52;98572.94;;;19.12;39.27
54329;BME280;40710;51.120;13.136;2023-04-23T01:03:18;98572.13;;;19.11;38.91
54329;BME280;40710;51.120;13.136;2023-04-23T01:05:45;98571.75;;;18.70;39.70
54329;BME280;40710;51.120;13.136;2023-04-23T01:08:14;98561.47;;;18.93;39.26
54329;BME280;40710;51.120;13.136;2023-04-23T01:10:39;98568.13;;;18.89;39.69
54329;BME280;40710;51.120;13.136;2023-04-23T01:13:04;98556.53;;;19.51;38.69
54329;BME280;40710;51.120;13.136;2023-04-23T01:15:28;98553.00;;;19.42;38.50
54329;BME280;40710;51.120;13.136;2023-04-23T01:17:53;98563.84;;;19.49;38.69
54329;BME280;40710;51.120;13.136;2023-04-23T01:20:21;98569.31;;;19.13;40.09
54329;BME280;40710;51.120;13.136;2023-04-23T01:22:46;98559.94;;;19.61;39.38
54329;BME280;40710;51.120;13.136;2023-04-23T01:25:12;98568.41;;;18.68;40.81
54329;BME280;40710;51.120;13.136;2023-04-23T01:27:37;98572.28;;;18.38;41.88
54329;BME280;40710;51.120;13.136;2023-04-23T01:30:04;98558.97;;;18.74;41.06
54329;BME280;40710;51.120;13.136;2023-04-23T01:32:30;98570.78;;;18.89;41.28
54329;BME280;40710;51.120;13.136;2023-04-23T01:34:56;98566.88;;;19.54;40.00
54329;BME280;40710;51.120;13.136;2023-04-23T01:37:22;98569.56;;;18.83;41.39
54329;BME280;40710;51.120;13.136;2023-04-23T01:39:48;98572.13;;;19.11;41.27
54329;BME280;40710;51.120;13.136;2023-04-23T01:42:12;98568.66;;;18.93;41.53
54329;BME280;40710;51.120;13.136;2023-04-23T01:44:37;98568.56;;;19.02;41.38
54329;BME280;40710;51.120;13.136;2023-04-23T01:47:02;98561.66;;;19.44;40.95
54329;BME280;40710;51.120;13.136;2023-04-23T01:49:27;98569.13;;;19.40;41.07
54329;BME280;40710;51.120;13.136;2023-04-23T01:51:52;98579.41;;;18.83;42.24
54329;BME280;40710;51.120;13.136;2023-04-23T01:54:16;98579.59;;;18.71;42.98
54329;BME280;40710;51.120;13.136;2023-04-23T01:56:41;98578.91;;;18.69;43.00
54329;BME280;40710;51.120;13.136;2023-04-23T01:59:05;98583.47;;;18.59;43.80
54329;BME280;40710;51.120;13.136;2023-04-23T02:01:46;98589.38;;;18.35;44.65
54329;BME280;40710;51.120;13.136;2023-04-23T02:04:12;98584.28;;;18.42;44.86
54329;BME280;40710;51.120;13.136;2023-04-23T02:06:37;98584.69;;;18.47;44.51
54329;BME280;40710;51.120;13.136;2023-04-23T02:09:02;98566.34;;;18.80;43.94
54329;BME280;40710;51.120;13.136;2023-04-23T02:11:26;98569.19;;;18.60;44.65
54329;BME280;40710;51.120;13.136;2023-04-23T02:13:51;98568.13;;;18.89;43.75
54329;BME280;40710;51.120;13.136;2023-04-23T02:16:15;98573.88;;;18.66;44.36
54329;BME280;40710;51.120;13.136;2023-04-23T02:18:40;98582.31;;;17.98;45.46
54329;BME280;40710;51.120;13.136;2023-04-23T02:21:05;98569.31;;;18.77;44.09
54329;BME280;40710;51.120;13.136;2023-04-23T02:23:30;98569.16;;;18.96;43.91
54329;BME280;40710;51.120;13.136;2023-04-23T02:25:54;98564.16;;;18.93;44.23
54329;BME280;40710;51.120;13.136;2023-04-23T02:28:19;98571.50;;;18.63;45.16
54329;BME280;40710;51.120;13.136;2023-04-23T02:30:43;98572.19;;;18.29;46.42
54329;BME280;40710;51.120;13.136;2023-04-23T02:33:11;98564.00;;;18.77;45.70
54329;BME280;40710;51.120;13.136;2023-04-23T02:35:36;98560.34;;;18.42;46.74
54329;BME280;40710;51.120;13.136;2023-04-23T02:38:00;98571.75;;;18.52;46.85
54329;BME280;40710;51.120;13.136;2023-04-23T02:40:25;98550.31;;;18.71;46.57
54329;BME280;40710;51.120;13.136;2023-04-23T02:42:49;98552.78;;;19.09;45.87
54329;BME280;40710;51.120;13.136;2023-04-23T02:45:14;98548.69;;;18.79;46.78
54329;BME280;40710;51.120;13.136;2023-04-23T02:47:38;98544.91;;;18.99;46.20
54329;BME280;40710;51.120;13.136;2023-04-23T02:50:04;98544.47;;;18.68;47.01
54329;BME280;40710;51.120;13.136;2023-04-23T02:52:29;98543.19;;;18.90;46.72
54329;BME280;40710;51.120;13.136;2023-04-23T02:54:54;98541.28;;;18.82;46.76
54329;BME280;40710;51.120;13.136;2023-04-23T02:57:19;98553.34;;;18.23;48.33
54329;BME280;40710;51.120;13.136;2023-04-23T02:59:44;98553.66;;;18.56;48.12
54329;BME280;40710;51.120;13.136;2023-04-23T03:02:09;98540.03;;;18.77;47.72
54329;BME280;40710;51.120;13.136;2023-04-23T03:04:34;98542.34;;;18.54;48.00
54329;BME280;40710;51.120;13.136;2023-04-23T03:06:58;98539.88;;;18.96;47.25
54329;BME280;40710;51.120;13.136;2023-04-23T03:09:23;98534.88;;;18.75;47.90
54329;BME280;40710;51.120;13.136;2023-04-23T03:11:47;98528.63;;;18.84;47.12
54329;BME280;40710;51.120;13.136;2023-04-23T03:14:12;98526.72;;;18.77;47.56
54329;BME280;40710;51.120;13.136;2023-04-23T03:16:37;98521.25;;;19.22;47.33
54329;BME280;40710;51.120;13.136;2023-04-23T03:19:01;98522.75;;;18.81;48.37
54329;BME280;40710;51.120;13.136;2023-04-23T03:21:26;98531.28;;;19.02;47.73
54329;BME280;40710;51.120;13.136;2023-04-23T03:23:50;98522.03;;;19.15;47.58
54329;BME280;40710;51.120;13.136;2023-04-23T03:26:15;98521.94;;;18.80;48.11
54329;BME280;40710;51.120;13.136;2023-04-23T03:28:39;98518.44;;;18.98;47.96
54329;BME280;40710;51.120;13.136;2023-04-23T03:31:04;98519.84;;;19.36;47.41
54329;BME280;40710;51.120;13.136;2023-04-23T03:33:28;98521.66;;;18.83;48.12
54329;BME280;40710;51.120;13.136;2023-04-23T03:35:54;98520.88;;;18.73;48.29
54329;BME280;40710;51.120;13.136;2023-04-23T03:38:18;98513.81;;;18.82;47.82
54329;BME280;40710;51.120;13.136;2023-04-23T03:40:43;98515.25;;;18.58;48.59
54329;BME280;40710;51.120;13.136;2023-04-23T03:43:08;98513.56;;;18.93;47.93
54329;BME280;40710;51.120;13.136;2023-04-23T03:45:32;98511.53;;;18.69;48.49
54329;BME280;40710;51.120;13.136;2023-04-23T03:47:57;98517.47;;;18.45;49.13
54329;BME280;40710;51.120;13.136;2023-04-23T03:50:21;98508.50;;;18.46;49.07
54329;BME280;40710;51.120;13.136;2023-04-23T03:52:47;98520.22;;;17.62;50.70
54329;BME280;40710;51.120;13.136;2023-04-23T03:55:11;98509.94;;;18.58;48.78
54329;BME280;40710;51.120;13.136;2023-04-23T03:57:36;98517.25;;;18.02;49.74
54329;BME280;40710;51.120;13.136;2023-04-23T04:00:01;98520.41;;;17.78;50.61
54329;BME280;40710;51.120;13.136;2023-04-23T04:02:26;98518.75;;;18.05;50.10
54329;BME280;40710;51.120;13.136;2023-04-23T04:04:51;98508.88;;;17.97;50.20
54329;BME280;40710;51.120;13.136;2023-04-23T04:07:17;98519.41;;;17.89;50.38
54329;BME280;40710;51.120;13.136;2023-04-23T04:09:42;98520.31;;;17.70;50.60
54329;BME280;40710;51.120;13.136;2023-04-23T04:12:06;98522.06;;;17.79;50.81
54329;BME280;40710;51.120;13.136;2023-04-23T04:14:31;98518.50;;;17.43;51.53
54329;BME280;40710;51.120;13.136;2023-04-23T04:16:56;98519.81;;;17.84;50.11
54329;BME280;40710;51.120;13.136;2023-04-23T04:19:21;98533.56;;;16.95;51.86
54329;BME280;40710;51.120;13.136;2023-04-23T04:21:45;98533.00;;;17.48;50.78
54329;BME280;40710;51.120;13.136;2023-04-23T04:24:11;98531.63;;;17.72;50.23
54329;BME280;40710;51.120;13.136;2023-04-23T04:26:35;98537.84;;;17.25;51.46
54329;BME280;40710;51.120;13.136;2023-04-23T04:29:00;98542.75;;;17.10;51.52
54329;BME280;40710;51.120;13.136;2023-04-23T04:31:25;98542.00;;;17.65;50.67
54329;BME280;40710;51.120;13.136;2023-04-23T04:33:51;98540.91;;;17.58;51.22
54329;BME280;40710;51.120;13.136;2023-04-23T04:36:16;98540.00;;;17.77;51.00
54329;BME280;40710;51.120;13.136;2023-04-23T04:38:41;98551.22;;;17.71;51.04
54329;BME280;40710;51.120;13.136;2023-04-23T04:41:07;98546.38;;;17.94;50.64
54329;BME280;40710;51.120;13.136;2023-04-23T04:43:31;98538.41;;;17.94;50.25
54329;BME280;40710;51.120;13.136;2023-04-23T04:45:56;98542.78;;;17.48;51.97
54329;BME280;40710;51.120;13.136;2023-04-23T04:48:22;98552.22;;;17.32;52.54
54329;BME280;40710;51.120;13.136;2023-04-23T04:50:47;98546.41;;;16.99;53.30
54329;BME280;40710;51.120;13.136;2023-04-23T04:53:11;98535.13;;;17.45;52.33
54329;BME280;40710;51.120;13.136;2023-04-23T04:55:36;98544.84;;;17.16;53.83
54329;BME280;40710;51.120;13.136;2023-04-23T04:58:00;98546.34;;;17.66;52.63
54329;BME280;40710;51.120;13.136;2023-04-23T05:00:27;98547.00;;;17.41;53.00
54329;BME280;40710;51.120;13.136;2023-04-23T05:02:52;98547.44;;;17.36;52.98
54329;BME280;40710;51.120;13.136;2023-04-23T05:05:18;98544.56;;;17.94;52.04
54329;BME280;40710;51.120;13.136;2023-04-23T05:07:43;98552.53;;;17.57;53.02
54329;BME280;40710;51.120;13.136;2023-04-23T05:10:08;98547.44;;;18.29;51.87
54329;BME280;40710;51.120;13.136;2023-04-23T05:12:33;98548.69;;;18.25;51.97
54329;BME280;40710;51.120;13.136;2023-04-23T05:14:58;98544.91;;;18.45;51.14
54329;BME280;40710;51.120;13.136;2023-04-23T05:17:22;98562.22;;;17.86;52.74
54329;BME280;40710;51.120;13.136;2023-04-23T05:19:47;98558.34;;;18.08;52.34
54329;BME280;40710;51.120;13.136;2023-04-23T05:22:11;98547.66;;;18.54;51.52
54329;BME280;40710;51.120;13.136;2023-04-23T05:24:36;98553.75;;;18.82;51.02
54329;BME280;40710;51.120;13.136;2023-04-23T05:27:00;98549.25;;;18.64;51.31
54329;BME280;40710;51.120;13.136;2023-04-23T05:29:25;98548.44;;;18.82;50.59
54329;BME280;40710;51.120;13.136;2023-04-23T05:31:50;98565.28;;;18.55;51.84
54329;BME280;40710;51.120;13.136;2023-04-23T05:34:15;98549.16;;;18.56;51.65
54329;BME280;40710;51.120;13.136;2023-04-23T05:36:39;98555.84;;;18.78;51.36
54329;BME280;40710;51.120;13.136;2023-04-23T05:39:04;98559.97;;;17.53;54.25
54329;BME280;40710;51.120;13.136;2023-04-23T05:41:28;98560.03;;;18.81;52.13
54329;BME280;40710;51.120;13.136;2023-04-23T05:43:53;98557.34;;;18.81;51.13
54329;BME280;40710;51.120;13.136;2023-04-23T05:46:17;98572.06;;;18.03;52.82
54329;BME280;40710;51.120;13.136;2023-04-23T05:48:42;98578.38;;;17.65;54.42
54329;BME280;40710;51.120;13.136;2023-04-23T05:51:06;98566.28;;;19.07;51.06
54329;BME280;40710;51.120;13.136;2023-04-23T05:53:31;98557.56;;;19.58;49.78
54329;BME280;40710;51.120;13.136;2023-04-23T05:55:55;98573.94;;;19.11;51.13
54329;BME280;40710;51.120;13.136;2023-04-23T05:58:20;98577.94;;;18.88;51.54
54329;BME280;40710;51.120;13.136;2023-04-23T06:00:45;98578.78;;;18.89;50.70
54329;BME280;40710;51.120;13.136;2023-04-23T06:03:09;98596.84;;;19.03;51.08
54329;BME280;40710;51.120;13.136;2023-04-23T06:05:34;98596.63;;;18.61;51.84
54329;BME280;40710;51.120;13.136;2023-04-23T06:07:59;98595.56;;;18.71;50.80
54329;BME280;40710;51.120;13.136;2023-04-23T06:10:24;98585.47;;;19.45;49.41
54329;BME280;40710;51.120;13.136;2023-04-23T06:12:48;98597.16;;;18.64;50.80
54329;BME280;40710;51.120;13.136;2023-04-23T06:15:14;98602.88;;;18.87;50.81
54329;BME280;40710;51.120;13.136;2023-04-23T06:17:39;98600.91;;;18.26;52.19
54329;BME280;40710;51.120;13.136;2023-04-23T06:20:04;98593.13;;;18.96;50.39
54329;BME280;40710;51.120;13.136;2023-04-23T06:22:29;98599.59;;;19.12;50.17
54329;BME280;40710;51.120;13.136;2023-04-23T06:24:55;98612.59;;;18.61;50.58
54329;BME280;40710;51.120;13.136;2023-04-23T06:27:19;98621.38;;;18.43;51.55
54329;BME280;40710;51.120;13.136;2023-04-23T06:29:44;98602.63;;;18.81;50.83
54329;BME280;40710;51.120;13.136;2023-04-23T06:32:09;98613.13;;;18.64;50.95
54329;BME280;40710;51.120;13.136;2023-04-23T06:34:34;98606.50;;;18.68;50.80
54329;BME280;40710;51.120;13.136;2023-04-23T06:36:58;98616.16;;;18.06;52.33
54329;BME280;40710;51.120;13.136;2023-04-23T06:39:23;98614.72;;;18.93;51.17
54329;BME280;40710;51.120;13.136;2023-04-23T06:41:47;98605.03;;;19.28;50.37
54329;BME280;40710;51.120;13.136;2023-04-23T06:44:12;98610.31;;;18.66;51.53
54329;BME280;40710;51.120;13.136;2023-04-23T06:46:36;98605.53;;;19.32;50.13
54329;BME280;40710;51.120;13.136;2023-04-23T06:49:01;98621.25;;;18.81;51.58
54329;BME280;40710;51.120;13.136;2023-04-23T06:51:25;98616.03;;;18.89;51.01
54329;BME280;40710;51.120;13.136;2023-04-23T06:53:51;98610.88;;;18.87;51.64
54329;BME280;40710;51.120;13.136;2023-04-23T06:56:15;98621.97;;;19.45;50.59
54329;BME280;40710;51.120;13.136;2023-04-23T06:58:40;98628.50;;;17.97;53.31
54329;BME280;40710;51.120;13.136;2023-04-23T07:01:04;98620.72;;;18.59;52.40
54329;BME280;40710;51.120;13.136;2023-04-23T07:03:30;98634.78;;;17.96;53.10
54329;BME280;40710;51.120;13.136;2023-04-23T07:05:55;98634.53;;;17.89;54.12
54329;BME280;40710;51.120;13.136;2023-04-23T07:08:19;98618.06;;;19.13;51.22
54329;BME280;40710;51.120;13.136;2023-04-23T07:10:47;98625.13;;;18.23;52.94
54329;BME280;40710;51.120;13.136;2023-04-23T07:13:11;98615.41;;;19.13;51.69
54329;BME280;40710;51.120;13.136;2023-04-23T07:15:36;98630.91;;;17.90;54.07
54329;BME280;40710;51.120;13.136;2023-04-23T07:18:01;98621.91;;;18.93;51.95
54329;BME280;40710;51.120;13.136;2023-04-23T07:20:25;98618.09;;;18.49;52.55
54329;BME280;40710;51.120;13.136;2023-04-23T07:22:50;98624.19;;;18.42;53.27
54329;BME280;40710;51.120;13.136;2023-04-23T07:25:16;98633.13;;;17.85;54.48
54329;BME280;40710;51.120;13.136;2023-04-23T07:27:40;98621.63;;;18.50;52.84
54329;BME280;40710;51.120;13.136;2023-04-23T07:30:05;98601.41;;;19.90;49.95
54329;BME280;40710;51.120;13.136;2023-04-23T07:32:30;98599.91;;;19.61;50.56
54329;BME280;40710;51.120;13.136;2023-04-23T07:34:54;98583.31;;;21.02;46.88
54329;BME280;40710;51.120;13.136;2023-04-23T07:37:22;98591.84;;;20.72;48.16
54329;BME280;40710;51.120;13.136;2023-04-23T07:39:46;98589.50;;;20.86;47.28
54329;BME280;40710;51.120;13.136;2023-04-23T07:42:11;98611.75;;;19.93;48.96
54329;BME280;40710;51.120;13.136;2023-04-23T07:44:36;98619.22;;;19.63;49.78
54329;BME280;40710;51.120;13.136;2023-04-23T07:47:01;98613.44;;;19.41;50.60
54329;BME280;40710;51.120;13.136;2023-04-23T07:49:25;98614.19;;;19.78;49.51
54329;BME280;40710;51.120;13.136;2023-04-23T07:51:50;98585.63;;;21.54;45.67
54329;BME280;40710;51.120;13.136;2023-04-23T07:54:14;98604.69;;;21.10;46.88
54329;BME280;40710;51.120;13.136;2023-04-23T07:56:39;98620.19;;;20.65;48.50
54329;BME280;40710;51.120;13.136;2023-04-23T07:59:03;98599.94;;;20.54;48.90
54329;BME280;40710;51.120;13.136;2023-04-23T08:01:29;98603.75;;;20.35;48.22
54329;BME280;40710;51.120;13.136;2023-04-23T08:03:56;98607.69;;;20.74;47.76
54329;BME280;40710;51.120;13.136;2023-04-23T08:06:21;98611.69;;;19.76;49.52
54329;BME280;40710;51.120;13.136;2023-04-23T08:08:46;98615.03;;;19.78;49.69
54329;BME280;40710;51.120;13.136;2023-04-23T08:11:11;98608.41;;;19.91;49.57
54329;BME280;40710;51.120;13.136;2023-04-23T08:13:35;98625.00;;;19.50;50.80
54329;BME280;40710;51.120;13.136;2023-04-23T08:16:00;98618.38;;;20.74;50.15
54329;BME280;40710;51.120;13.136;2023-04-23T08:18:25;98622.69;;;20.16;49.93
54329;BME280;40710;51.120;13.136;2023-04-23T08:20:50;98626.66;;;19.77;51.13
54329;BME280;40710;51.120;13.136;2023-04-23T08:23:14;98609.34;;;21.65;46.99
54329;BME280;40710;51.120;13.136;2023-04-23T08:25:39;98625.38;;;19.81;49.01
54329;BME280;40710;51.120;13.136;2023-04-23T08:28:03;98627.16;;;20.07;49.32
54329;BME280;40710;51.120;13.136;2023-04-23T08:30:28;98634.91;;;19.66;49.59
54329;BME280;40710;51.120;13.136;2023-04-23T08:32:52;98636.41;;;20.29;49.50
54329;BME280;40710;51.120;13.136;2023-04-23T08:35:17;98639.00;;;19.52;50.58
54329;BME280;40710;51.120;13.136;2023-04-23T08:37:41;98647.09;;;19.42;50.86
54329;BME280;40710;51.120;13.136;2023-04-23T08:40:06;98644.06;;;19.37;51.17
54329;BME280;40710;51.120;13.136;2023-04-23T08:42:48;98628.38;;;20.80;48.82
